Time;durP1;ratioP1;P1;durP2;ratioP2;P2;SDS_P1;SDS_P2;PMS_P1;PMS_P2;Temp;Humidity;BMP_temperature;BMP_pressure;BME280_temperature;BME280_humidity;BME280_pressure;Samples;Min_cycle;Max_cycle;Signal;HPM_P1;HPM_P2
2022/08/25 00:01:13;;;;;;;9.02;2.10;;;20.40;73.80;;;;;;5045441;28;20025;-72
2022/08/25 00:03:40;;;;;;;2.58;2.05;;;20.40;73.80;;;;;;5041403;28;20025;-73
2022/08/25 00:06:08;;;;;;;2.53;1.90;;;20.40;73.80;;;;;;5042496;28;20037;-72
2022/08/25 00:08:36;;;;;;;2.67;2.20;;;20.40;73.80;;;;;;5024138;28;20395;-73
2022/08/25 00:11:13;;;;;;;5.03;2.28;;;20.40;73.80;;;;;;5038242;28;20045;-72
2022/08/25 00:13:46;;;;;;;4.95;2.33;;;20.40;73.90;;;;;;5022247;28;20037;-73
2022/08/25 00:16:15;;;;;;;4.18;2.42;;;20.40;73.90;;;;;;5041925;28;20021;-74
2022/08/25 00:18:46;;;;;;;4.32;2.30;;;20.40;73.90;;;;;;5040743;28;20025;-73
2022/08/25 00:21:14;;;;;;;3.60;2.35;;;20.40;73.90;;;;;;5024621;28;20407;-73
2022/08/25 00:23:41;;;;;;;3.55;2.35;;;20.40;73.90;;;;;;5042272;28;20029;-73
2022/08/25 00:26:08;;;;;;;4.13;2.20;;;20.40;73.90;;;;;;5041093;28;20055;-74
2022/08/25 00:28:35;;;;;;;2.53;2.30;;;20.40;73.90;;;;;;5042257;28;20035;-73
2022/08/25 00:31:02;;;;;;;2.85;2.58;;;20.40;73.90;;;;;;5007768;28;20045;-74
2022/08/25 00:33:30;;;;;;;2.80;2.60;;;20.40;73.90;;;;;;5040476;28;20029;-73
2022/08/25 00:35:57;;;;;;;5.25;3.40;;;20.50;74.10;;;;;;5026263;28;20487;-73
2022/08/25 00:38:23;;;;;;;2.30;2.10;;;20.40;73.90;;;;;;5046073;28;20025;-73
2022/08/25 00:41:04;;;;;;;3.85;2.10;;;20.50;74.10;;;;;;5027135;28;20025;-73
2022/08/25 00:43:41;;;;;;;3.85;2.60;;;20.50;74.10;;;;;;5025317;28;20501;-74
2022/08/25 00:46:08;;;;;;;2.50;2.22;;;20.50;74.10;;;;;;5046053;28;20029;-73
2022/08/25 00:48:37;;;;;;;3.10;2.80;;;20.50;74.10;;;;;;5025254;28;20022;-73
2022/08/25 00:51:06;;;;;;;3.50;1.98;;;20.50;74.10;;;;;;5045476;28;20031;-73
2022/08/25 00:53:32;;;;;;;2.83;2.20;;;20.50;74.10;;;;;;5011337;28;20040;-73
2022/08/25 00:55:58;;;;;;;3.20;1.98;;;20.50;74.10;;;;;;5045697;28;20342;-73
2022/08/25 00:58:26;;;;;;;2.88;1.60;;;20.50;74.20;;;;;;5045791;28;20074;-72
2022/08/25 01:00:55;;;;;;;2.67;2.30;;;20.50;74.20;;;;;;5047008;28;20033;-73
2022/08/25 01:03:23;;;;;;;2.88;2.40;;;20.50;74.20;;;;;;5044061;28;20013;-73
2022/08/25 01:05:50;;;;;;;2.85;2.20;;;20.50;74.20;;;;;;5026338;28;20045;-72
2022/08/25 01:08:19;;;;;;;4.22;3.13;;;20.50;74.20;;;;;;5045833;28;20036;-74
2022/08/25 01:10:47;;;;;;;2.97;2.53;;;20.50;74.20;;;;;;5047276;28;20021;-74
2022/08/25 01:13:25;;;;;;;1.77;1.67;;;20.50;74.20;;;;;;5041933;28;20028;-74
2022/08/25 01:15:54;;;;;;;2.33;2.00;;;20.50;74.20;;;;;;5045827;28;20502;-75
2022/08/25 01:18:21;;;;;;;2.50;2.13;;;20.40;74.10;;;;;;5025973;28;20029;-73
2022/08/25 01:20:49;;;;;;;4.00;2.58;;;20.50;74.30;;;;;;5045642;28;20033;-73
2022/08/25 01:23:15;;;;;;;3.63;2.38;;;20.50;74.30;;;;;;5041566;28;20040;-75
2022/08/25 01:25:51;;;;;;;3.28;2.58;;;20.50;74.30;;;;;;5044982;28;20602;-70
2022/08/25 01:28:19;;;;;;;3.28;1.83;;;20.50;74.30;;;;;;5026157;28;20033;-72
2022/08/25 01:30:46;;;;;;;4.55;2.88;;;20.50;74.30;;;;;;5045584;28;20021;-73
2022/08/25 01:33:12;;;;;;;2.65;2.03;;;20.50;74.30;;;;;;5025386;28;20598;-72
2022/08/25 01:35:39;;;;;;;2.63;2.33;;;20.50;74.30;;;;;;5044645;28;20320;-72
2022/08/25 01:38:07;;;;;;;3.08;2.45;;;20.50;74.30;;;;;;5044901;28;20455;-72
2022/08/25 01:40:35;;;;;;;2.55;2.35;;;20.50;74.30;;;;;;5045586;28;20059;-72
2022/08/25 01:43:11;;;;;;;3.03;2.38;;;20.50;74.30;;;;;;5043827;28;20037;-72
2022/08/25 01:45:40;;;;;;;2.58;1.92;;;20.50;74.40;;;;;;5040543;22;20045;-84
2022/08/25 01:48:07;;;;;;;2.35;1.90;;;20.50;74.30;;;;;;5040620;28;20097;-87
2022/08/25 01:50:34;;;;;;;4.47;2.17;;;20.50;74.40;;;;;;5047205;28;20032;-87
2022/08/25 01:53:22;;;;;;;5.40;2.00;;;20.50;74.40;;;;;;5013554;28;20029;-86
2022/08/25 01:55:50;;;;;;;3.30;2.05;;;20.50;74.40;;;;;;5010643;28;20040;-87
2022/08/25 01:58:28;;;;;;;2.20;1.98;;;20.50;74.30;;;;;;5026696;28;20033;-89
2022/08/25 02:00:56;;;;;;;2.88;2.15;;;20.50;74.40;;;;;;5027869;28;20022;-86
2022/08/25 02:03:23;;;;;;;2.25;1.70;;;20.50;74.40;;;;;;5011231;28;20096;-87
2022/08/25 02:05:52;;;;;;;3.45;2.15;;;20.50;74.30;;;;;;5009718;28;20049;-87
2022/08/25 02:08:18;;;;;;;3.95;1.77;;;20.50;74.40;;;;;;5026922;28;20026;-85
2022/08/25 02:10:45;;;;;;;2.85;1.70;;;20.50;74.40;;;;;;5026826;28;20021;-85
2022/08/25 02:13:11;;;;;;;4.05;2.05;;;20.50;74.40;;;;;;5026385;28;20029;-86
2022/08/25 02:15:43;;;;;;;1.60;1.50;;;20.50;74.40;;;;;;5026677;28;20022;-87
2022/08/25 02:18:11;;;;;;;3.37;1.67;;;20.50;74.40;;;;;;5009735;28;20034;-86
2022/08/25 02:20:38;;;;;;;2.33;1.63;;;20.50;74.40;;;;;;5024684;28;20028;-86
2022/08/25 02:23:04;;;;;;;1.58;1.40;;;20.50;74.50;;;;;;5027231;28;20134;-86
2022/08/25 02:25:31;;;;;;;2.17;1.50;;;20.50;75.00;;;;;;5023059;28;20038;-86
2022/08/25 02:27:57;;;;;;;1.98;1.70;;;20.50;74.50;;;;;;5008450;28;20049;-86
2022/08/25 02:30:25;;;;;;;3.17;1.42;;;20.50;74.50;;;;;;5010940;28;20409;-86
2022/08/25 02:32:51;;;;;;;4.88;2.10;;;20.50;74.50;;;;;;5009703;28;20021;-88
2022/08/25 02:35:17;;;;;;;2.15;1.45;;;20.50;74.50;;;;;;5010824;28;20024;-88
2022/08/25 02:37:43;;;;;;;2.70;2.03;;;20.50;74.60;;;;;;5026926;28;20095;-87
2022/08/25 02:40:11;;;;;;;2.40;1.40;;;20.50;74.60;;;;;;5027242;28;20132;-86
2022/08/25 02:42:37;;;;;;;4.25;2.17;;;20.40;74.30;;;;;;5026162;28;20041;-87
2022/08/25 02:45:06;;;;;;;3.42;1.35;;;20.50;74.60;;;;;;5010403;28;20045;-86
2022/08/25 02:47:32;;;;;;;2.17;1.50;;;20.40;74.40;;;;;;5025198;28;20053;-86
2022/08/25 02:49:58;;;;;;;2.28;1.35;;;20.40;74.40;;;;;;5006853;28;20037;-88
2022/08/25 02:52:24;;;;;;;1.70;1.60;;;20.40;74.40;;;;;;5026249;28;20037;-87
2022/08/25 02:54:50;;;;;;;2.28;1.60;;;20.40;74.40;;;;;;5027034;28;20637;-87
2022/08/25 02:57:16;;;;;;;2.47;1.17;;;20.40;74.40;;;;;;5029697;28;20048;-86
2022/08/25 02:59:47;;;;;;;1.15;1.05;;;20.40;74.40;;;;;;5026670;28;20090;-87
2022/08/25 03:02:15;;;;;;;1.20;1.00;;;20.40;74.50;;;;;;5024116;28;20071;-87
2022/08/25 03:04:41;;;;;;;1.58;1.27;;;20.40;74.60;;;;;;5010481;28;20036;-87
2022/08/25 03:07:09;;;;;;;1.20;1.10;;;20.40;74.60;;;;;;5007920;28;20045;-86
2022/08/25 03:09:35;;;;;;;1.25;1.15;;;20.40;74.60;;;;;;5009866;28;20029;-86
2022/08/25 03:12:01;;;;;;;2.67;1.00;;;20.40;74.60;;;;;;5012682;28;20037;-88
2022/08/25 03:14:27;;;;;;;4.07;1.80;;;20.40;74.60;;;;;;5025946;28;20034;-86
2022/08/25 03:16:53;;;;;;;2.47;1.20;;;20.30;74.50;;;;;;5041578;28;20025;-87
2022/08/25 03:19:20;;;;;;;1.80;1.15;;;20.30;74.50;;;;;;5008530;28;20033;-86
2022/08/25 03:21:46;;;;;;;1.60;1.30;;;20.30;74.60;;;;;;5025291;28;20346;-87
2022/08/25 03:24:12;;;;;;;1.13;0.70;;;20.30;75.10;;;;;;5025392;28;20048;-87
2022/08/25 03:26:54;;;;;;;1.30;1.20;;;20.30;74.60;;;;;;5024831;28;20064;-87
2022/08/25 03:29:30;;;;;;;1.77;1.17;;;20.30;74.60;;;;;;5027051;28;20025;-90
2022/08/25 03:31:57;;;;;;;0.80;0.80;;;20.30;74.60;;;;;;5023238;28;20023;-85
2022/08/25 03:34:24;;;;;;;1.55;0.80;;;20.30;74.60;;;;;;5026248;28;20029;-83
2022/08/25 03:36:52;;;;;;;1.38;1.10;;;20.30;74.60;;;;;;5025345;28;20167;-86
2022/08/25 03:39:20;;;;;;;1.60;0.90;;;20.30;74.70;;;;;;5011284;28;21301;-87
2022/08/25 03:41:50;;;;;;;1.80;1.10;;;20.30;74.70;;;;;;5024775;28;20562;-87
2022/08/25 03:44:17;;;;;;;1.92;1.20;;;20.30;74.70;;;;;;5025343;28;20033;-86
2022/08/25 03:46:46;;;;;;;1.15;1.05;;;20.30;74.70;;;;;;5008830;28;20037;-87
2022/08/25 03:49:16;;;;;;;0.93;0.93;;;20.30;74.70;;;;;;5007488;28;20271;-85
2022/08/25 03:51:47;;;;;;;1.85;0.93;;;20.30;74.70;;;;;;5025208;28;20010;-86
2022/08/25 03:54:15;;;;;;;;;;;20.30;74.70;;;;;;4991593;28;20193;-87
2022/08/25 03:56:42;;;;;;;1.90;1.25;;;20.30;74.70;;;;;;5026400;28;19908;-88
2022/08/25 03:59:09;;;;;;;1.08;0.98;;;20.30;74.60;;;;;;5024134;28;20089;-89
2022/08/25 04:01:36;;;;;;;1.23;1.05;;;20.20;74.40;;;;;;5008435;28;20297;-88
2022/08/25 04:04:04;;;;;;;2.25;1.13;;;20.30;74.70;;;;;;4991995;28;20022;-89
2022/08/25 04:06:30;;;;;;;3.65;1.17;;;20.30;74.70;;;;;;5041651;28;20037;-86
2022/08/25 04:08:57;;;;;;;1.15;1.00;;;20.20;74.50;;;;;;5025332;28;20034;-87
2022/08/25 04:11:24;;;;;;;1.02;0.90;;;20.20;74.60;;;;;;5028928;28;20024;-88
2022/08/25 04:13:52;;;;;;;1.02;0.80;;;20.20;74.60;;;;;;5010946;28;20060;-86
2022/08/25 04:16:23;;;;;;;1.05;0.90;;;20.20;74.60;;;;;;5028576;28;20025;-86
2022/08/25 04:18:50;;;;;;;0.80;0.80;;;20.20;74.70;;;;;;5010969;28;20033;-87
2022/08/25 04:21:17;;;;;;;0.80;0.80;;;20.20;74.60;;;;;;5012750;28;20235;-86
2022/08/25 04:23:46;;;;;;;0.88;0.70;;;20.20;74.70;;;;;;5028708;28;20025;-87
2022/08/25 04:26:23;;;;;;;1.30;1.20;;;20.20;74.70;;;;;;5044635;28;20052;-85
2022/08/25 04:28:49;;;;;;;1.30;1.20;;;20.20;74.80;;;;;;5028833;28;20836;-89
2022/08/25 04:31:17;;;;;;;0.93;0.80;;;20.20;74.80;;;;;;5011952;28;20022;-89
2022/08/25 04:33:43;;;;;;;1.45;1.02;;;20.20;74.80;;;;;;5010495;28;20343;-87
2022/08/25 04:36:12;;;;;;;1.15;0.85;;;20.20;74.90;;;;;;5026245;28;20356;-89
2022/08/25 04:38:40;;;;;;;1.05;0.80;;;20.20;74.90;;;;;;5028841;28;20044;-91
2022/08/25 04:41:07;;;;;;;0.70;0.65;;;20.20;74.90;;;;;;4996294;28;20038;-89
2022/08/25 04:43:34;;;;;;;0.73;0.73;;;20.20;74.90;;;;;;5028433;28;20024;-88
2022/08/25 04:46:06;;;;;;;1.40;0.85;;;20.20;74.90;;;;;;5030067;28;20056;-88
2022/08/25 04:48:33;;;;;;;2.85;0.90;;;20.20;75.00;;;;;;5038041;28;20041;-87
2022/08/25 04:51:04;;;;;;;0.70;0.70;;;20.20;75.00;;;;;;5026753;28;20092;-87
2022/08/25 04:53:32;;;;;;;1.03;0.77;;;20.20;74.90;;;;;;5049126;28;20035;-88
2022/08/25 04:55:58;;;;;;;1.30;0.95;;;20.20;74.90;;;;;;5050386;28;20025;-88
2022/08/25 04:58:26;;;;;;;1.20;0.90;;;20.10;74.80;;;;;;5052327;28;20040;-88
2022/08/25 05:00:52;;;;;;;1.25;0.88;;;20.10;74.80;;;;;;5040091;28;20129;-87
2022/08/25 05:03:18;;;;;;;1.02;0.70;;;20.10;74.80;;;;;;5001038;28;20098;-86
2022/08/25 05:05:44;;;;;;;0.77;0.77;;;20.10;74.90;;;;;;5028842;28;20061;-85
2022/08/25 05:08:10;;;;;;;0.70;0.70;;;20.10;74.90;;;;;;5027408;28;20055;-86
2022/08/25 05:10:40;;;;;;;1.00;0.75;;;20.10;74.90;;;;;;5027653;28;20033;-86
2022/08/25 05:13:06;;;;;;;1.45;0.95;;;20.10;74.90;;;;;;5035038;28;20429;-88
2022/08/25 05:15:50;;;;;;;1.10;0.80;;;20.10;74.90;;;;;;5000251;28;20059;-89
2022/08/25 05:18:17;;;;;;;1.42;1.33;;;20.10;74.90;;;;;;5021901;28;20030;-93
2022/08/25 05:20:43;;;;;;;1.33;0.90;;;20.10;74.90;;;;;;5036491;28;20052;-92
2022/08/25 05:23:09;;;;;;;0.68;0.68;;;20.00;74.70;;;;;;5023247;28;20100;-91
2022/08/25 05:25:36;;;;;;;1.50;0.90;;;20.00;74.80;;;;;;5040173;28;20105;-90
2022/08/25 05:28:02;;;;;;;1.95;0.80;;;20.00;74.80;;;;;;5033019;28;20028;-91
2022/08/25 05:30:28;;;;;;;1.00;1.00;;;20.00;74.80;;;;;;5056528;28;20100;-89
2022/08/25 05:32:54;;;;;;;1.08;0.98;;;20.00;74.90;;;;;;5018984;28;20029;-91
2022/08/25 05:35:20;;;;;;;1.10;1.00;;;20.00;74.90;;;;;;5004998;28;20092;-89
2022/08/25 05:37:46;;;;;;;1.38;1.25;;;20.00;74.90;;;;;;5058971;28;20129;-89
2022/08/25 05:40:13;;;;;;;2.20;1.02;;;20.00;74.90;;;;;;5016165;28;20048;-83
2022/08/25 05:42:39;;;;;;;1.77;1.00;;;20.00;75.40;;;;;;5028237;28;20105;-84
2022/08/25 05:45:06;;;;;;;2.00;1.45;;;20.00;74.90;;;;;;5012169;28;20305;-84
2022/08/25 05:47:32;;;;;;;0.80;0.80;;;20.00;74.90;;;;;;5010323;28;20650;-86
2022/08/25 05:50:00;;;;;;;1.33;1.00;;;20.00;74.90;;;;;;5025211;28;20030;-84
2022/08/25 05:52:26;;;;;;;1.00;0.90;;;20.00;74.90;;;;;;5030413;28;20024;-83
2022/08/25 05:54:53;;;;;;;1.00;0.88;;;20.00;74.90;;;;;;5025239;28;20037;-83
2022/08/25 05:57:19;;;;;;;2.22;1.23;;;20.00;74.90;;;;;;5026404;28;20037;-85
2022/08/25 05:59:44;;;;;;;1.20;1.02;;;20.00;74.80;;;;;;5025419;28;20021;-81
2022/08/25 06:04:57;;;;;;;2.25;0.98;;;20.00;74.70;;;;;;5026834;28;20037;-84
2022/08/25 06:07:23;;;;;;;1.38;1.23;;;20.00;74.60;;;;;;5028176;28;20029;-83
2022/08/25 06:09:49;;;;;;;1.95;1.00;;;20.00;74.60;;;;;;5007027;28;20030;-84
2022/08/25 06:12:15;;;;;;;2.28;1.05;;;20.00;74.60;;;;;;5024632;28;20341;-86
2022/08/25 06:14:42;;;;;;;1.90;0.77;;;20.00;74.60;;;;;;5008200;28;20436;-82
2022/08/25 06:17:08;;;;;;;1.60;0.80;;;20.00;74.60;;;;;;5007044;28;20033;-86
2022/08/25 06:19:34;;;;;;;1.20;1.00;;;20.00;74.50;;;;;;5025975;28;20493;-84
2022/08/25 06:22:00;;;;;;;2.15;1.15;;;20.00;74.50;;;;;;5030921;28;20088;-86
2022/08/25 06:24:27;;;;;;;1.58;1.02;;;20.00;74.60;;;;;;5023839;28;20109;-88
2022/08/25 06:26:53;;;;;;;1.35;1.10;;;20.00;74.50;;;;;;5007532;28;20147;-86
2022/08/25 06:29:19;;;;;;;1.35;0.70;;;20.00;74.50;;;;;;5022439;28;20068;-85
2022/08/25 06:31:45;;;;;;;0.90;0.80;;;20.00;74.50;;;;;;5024530;28;20307;-86
2022/08/25 06:34:12;;;;;;;0.98;0.90;;;20.00;74.50;;;;;;5024258;28;20028;-85
2022/08/25 06:36:39;;;;;;;1.67;0.80;;;20.00;74.50;;;;;;5023834;28;20037;-86
2022/08/25 06:39:05;;;;;;;0.95;0.90;;;20.00;74.40;;;;;;5025115;28;20136;-84
2022/08/25 06:41:31;;;;;;;1.05;0.77;;;20.00;74.40;;;;;;5009767;28;20063;-84
2022/08/25 06:43:58;;;;;;;2.13;0.85;;;20.00;74.30;;;;;;5024217;28;20476;-84
2022/08/25 06:46:26;;;;;;;1.00;0.82;;;20.10;74.40;;;;;;5024874;28;20052;-86
2022/08/25 06:48:54;;;;;;;1.65;0.70;;;20.10;74.30;;;;;;5028154;28;20112;-86
2022/08/25 06:51:21;;;;;;;2.20;1.20;;;20.10;74.70;;;;;;5027765;28;20024;-83
2022/08/25 06:53:48;;;;;;;1.48;0.90;;;20.20;74.30;;;;;;5047425;28;20120;-82
2022/08/25 06:56:20;;;;;;;2.17;1.08;;;20.20;74.20;;;;;;5024773;28;20033;-85
2022/08/25 06:58:47;;;;;;;2.55;1.05;;;20.30;74.30;;;;;;5010114;28;20094;-87
2022/08/25 07:01:16;;;;;;;4.20;1.40;;;20.30;74.20;;;;;;5025669;28;20033;-85
2022/08/25 07:03:43;;;;;;;1.27;0.80;;;20.40;74.80;;;;;;5007904;28;20665;-85
2022/08/25 07:06:09;;;;;;;1.67;1.00;;;20.40;74.10;;;;;;5011397;28;20033;-82
2022/08/25 07:08:36;;;;;;;1.35;0.95;;;20.50;74.20;;;;;;5026735;28;20029;-83
2022/08/25 07:11:08;;;;;;;0.75;0.75;;;20.50;74.00;;;;;;4989070;28;20033;-83
2022/08/25 07:13:36;;;;;;;1.25;1.00;;;20.50;73.90;;;;;;5024164;28;20040;-81
2022/08/25 07:16:03;;;;;;;3.20;1.20;;;20.60;73.90;;;;;;5007142;28;20103;-84
2022/08/25 07:18:29;;;;;;;2.15;1.08;;;20.60;73.80;;;;;;5024105;28;20393;-83
2022/08/25 07:20:56;;;;;;;3.80;1.73;;;20.60;73.70;;;;;;5023299;28;20037;-90
2022/08/25 07:23:23;;;;;;;1.73;1.02;;;20.60;73.70;;;;;;4996711;28;20029;-96
2022/08/25 07:25:49;;;;;;;1.50;1.30;;;20.70;73.90;;;;;;5009992;28;20029;-92
2022/08/25 07:28:16;;;;;;;2.03;1.20;;;20.70;73.90;;;;;;4997333;28;20100;-87
2022/08/25 07:30:43;;;;;;;1.77;1.00;;;20.70;74.40;;;;;;5041331;28;20025;-89
2022/08/25 07:33:08;;;;;;;2.58;1.13;;;20.80;74.00;;;;;;5006882;28;20029;-87
2022/08/25 07:35:35;;;;;;;1.80;1.40;;;20.80;74.00;;;;;;5007297;28;20024;-84
2022/08/25 07:38:02;;;;;;;1.40;1.10;;;20.80;73.90;;;;;;5008367;28;20029;-86
2022/08/25 07:40:34;;;;;;;2.53;1.65;;;20.90;73.90;;;;;;5028186;28;20060;-85
2022/08/25 07:43:04;;;;;;;1.08;1.00;;;20.90;73.80;;;;;;5023333;28;20028;-83
2022/08/25 07:45:34;;;;;;;1.58;1.20;;;20.90;73.70;;;;;;5025365;28;20126;-87
2022/08/25 07:48:07;;;;;;;1.77;1.13;;;21.00;73.80;;;;;;5006896;28;20049;-89
2022/08/25 07:50:37;;;;;;;1.40;1.10;;;20.90;73.50;;;;;;5005561;28;20047;-92
2022/08/25 07:53:04;;;;;;;2.25;1.30;;;21.00;73.70;;;;;;5025612;28;20495;-83
2022/08/25 07:55:31;;;;;;;1.35;1.20;;;20.90;73.70;;;;;;5022849;28;20029;-87
2022/08/25 07:57:58;;;;;;;2.03;1.20;;;21.00;74.10;;;;;;5021959;28;20058;-90
2022/08/25 08:00:28;;;;;;;1.77;1.48;;;21.00;74.10;;;;;;5025375;28;20059;-95
2022/08/25 08:02:59;;;;;;;2.42;1.27;;;21.00;74.20;;;;;;5020435;28;20017;-89
2022/08/25 08:05:27;;;;;;;1.38;1.27;;;20.90;74.10;;;;;;5024788;28;20041;-88
2022/08/25 08:07:55;;;;;;;1.63;1.40;;;21.00;74.30;;;;;;5005280;28;20025;-86
2022/08/25 08:10:21;;;;;;;2.35;1.35;;;21.00;74.30;;;;;;5009747;28;20030;-86
2022/08/25 08:12:48;;;;;;;2.95;1.65;;;21.00;74.30;;;;;;5008699;28;20397;-87
2022/08/25 08:15:14;;;;;;;1.55;1.38;;;21.10;74.30;;;;;;4991082;28;20034;-91
2022/08/25 08:17:40;;;;;;;1.98;1.20;;;21.10;74.20;;;;;;4990972;28;20456;-92
2022/08/25 08:20:08;;;;;;;1.27;1.10;;;21.20;74.30;;;;;;5039076;28;20041;-92
2022/08/25 08:22:41;;;;;;;1.88;1.02;;;21.20;74.20;;;;;;5043443;28;20179;-94
2022/08/25 08:25:10;;;;;;;2.97;1.42;;;21.20;74.20;;;;;;5032236;28;20289;-95
2022/08/25 08:27:36;;;;;;;2.75;1.40;;;21.30;74.30;;;;;;5012546;28;20048;-96
2022/08/25 08:30:04;;;;;;;1.40;1.30;;;21.30;74.20;;;;;;5013464;28;20029;-91
2022/08/25 08:32:30;;;;;;;2.15;0.90;;;21.40;74.30;;;;;;5004986;28;20030;-83
2022/08/25 08:34:56;;;;;;;1.42;1.33;;;21.40;74.20;;;;;;5021338;28;20033;-88
2022/08/25 08:37:22;;;;;;;4.85;1.20;;;21.40;74.00;;;;;;5006347;28;20033;-84
2022/08/25 08:39:49;;;;;;;2.72;1.65;;;21.50;73.70;;;;;;5024856;28;20079;-86
2022/08/25 08:42:55;;;;;;;1.35;0.95;;;21.50;73.80;;;;;;5021709;28;20476;-85
2022/08/25 08:45:32;;;;;;;1.80;1.20;;;21.50;73.60;;;;;;5026001;28;20052;-90
2022/08/25 08:48:17;;;;;;;2.67;1.23;;;21.50;73.50;;;;;;5006120;28;20416;-95
2022/08/25 08:51:04;;;;;;;1.98;1.13;;;21.60;73.70;;;;;;5044026;28;20148;-94
2022/08/25 08:53:41;;;;;;;1.80;1.15;;;21.60;73.00;;;;;;5008733;28;20052;-87
2022/08/25 08:56:17;;;;;;;2.83;1.50;;;21.70;72.80;;;;;;5010462;28;20568;-90
2022/08/25 08:59:04;;;;;;;1.95;1.58;;;21.80;72.50;;;;;;5029474;28;20128;-96
2022/08/25 09:01:45;;;;;;;2.17;1.75;;;21.80;72.00;;;;;;5020161;28;20413;-84
2022/08/25 09:04:25;;;;;;;1.73;1.63;;;21.80;71.80;;;;;;5026215;28;20040;-85
2022/08/25 09:06:56;;;;;;;1.85;1.35;;;21.80;71.40;;;;;;5022104;28;20061;-84
2022/08/25 09:09:31;;;;;;;3.55;1.70;;;21.80;71.30;;;;;;5026334;28;20025;-87
2022/08/25 09:12:22;;;;;;;2.75;1.30;;;21.70;70.90;;;;;;5028714;28;20426;-87
2022/08/25 09:15:10;;;;;;;2.00;1.30;;;21.70;70.90;;;;;;5010266;28;20038;-86
2022/08/25 09:17:53;;;;;;;3.03;1.98;;;21.60;70.70;;;;;;5008520;28;20025;-91
2022/08/25 09:20:33;;;;;;;3.55;1.90;;;21.60;70.60;;;;;;5029331;28;20052;-93
2022/08/25 09:23:20;;;;;;;3.05;1.90;;;21.60;70.50;;;;;;4995502;28;20032;-94
2022/08/25 09:26:01;;;;;;;3.35;1.95;;;21.60;70.40;;;;;;5018332;28;20045;-96
2022/08/25 09:28:54;;;;;;;3.13;2.17;;;21.60;70.50;;;;;;5017827;28;20044;-93
2022/08/25 09:31:26;;;;;;;2.78;2.10;;;21.50;70.20;;;;;;5013647;28;20049;-94
2022/08/25 09:33:56;;;;;;;2.28;1.73;;;21.50;70.20;;;;;;5018476;28;20052;-94
2022/08/25 09:36:25;;;;;;;3.22;1.98;;;21.50;70.10;;;;;;4995953;28;20038;-94
2022/08/25 09:38:52;;;;;;;3.70;2.17;;;21.50;70.60;;;;;;5025469;28;20048;-84
2022/08/25 09:41:45;;;;;;;2.28;2.08;;;21.50;70.00;;;;;;5012136;28;20026;-87
2022/08/25 09:44:23;;;;;;;2.00;1.80;;;21.60;70.00;;;;;;5030107;28;20029;-92
2022/08/25 09:47:06;;;;;;;4.45;2.90;;;21.60;69.80;;;;;;5030306;28;20057;-94
2022/08/25 09:49:43;;;;;;;3.38;2.40;;;21.70;69.80;;;;;;5031882;28;20034;-88
2022/08/25 09:52:41;;;;;;;2.40;2.20;;;21.70;69.60;;;;;;5029093;28;20037;-89
2022/08/25 09:55:08;;;;;;;2.47;2.25;;;21.70;69.30;;;;;;5036244;28;20107;-89
2022/08/25 09:57:34;;;;;;;5.10;2.92;;;21.80;69.50;;;;;;5060525;28;20390;-86
2022/08/25 10:00:12;;;;;;;2.42;2.22;;;21.80;69.40;;;;;;5047801;28;20061;-87
2022/08/25 10:02:40;;;;;;;3.22;2.35;;;21.90;69.50;;;;;;5036785;28;20077;-85
2022/08/25 10:05:23;;;;;;;3.15;2.85;;;22.00;69.60;;;;;;5044159;28;20207;-87
2022/08/25 10:07:59;;;;;;;2.95;2.67;;;22.10;69.60;;;;;;5044052;28;20044;-85
2022/08/25 10:10:40;;;;;;;5.75;3.05;;;22.20;69.50;;;;;;5026707;28;20109;-87
2022/08/25 10:13:16;;;;;;;4.18;2.60;;;22.40;69.60;;;;;;5029043;28;20092;-87
2022/08/25 10:15:44;;;;;;;4.85;2.95;;;22.50;69.50;;;;;;5025076;28;20057;-87
2022/08/25 10:18:28;;;;;;;3.28;2.30;;;22.70;69.60;;;;;;5035471;28;20527;-88
2022/08/25 10:21:21;;;;;;;2.50;2.10;;;22.90;69.80;;;;;;5019877;28;20368;-84
2022/08/25 10:23:51;;;;;;;2.50;2.30;;;23.10;69.90;;;;;;5023692;28;20612;-86
2022/08/25 10:26:56;;;;;;;2.78;2.38;;;23.20;69.80;;;;;;5008156;28;20048;-87
2022/08/25 10:29:22;;;;;;;2.28;2.05;;;23.30;69.90;;;;;;5021450;28;20030;-87
2022/08/25 10:31:58;;;;;;;3.13;1.75;;;23.50;69.90;;;;;;5026176;28;20029;-90
2022/08/25 10:34:35;;;;;;;2.35;2.15;;;23.70;70.00;;;;;;4993216;28;20032;-93
2022/08/25 10:37:17;;;;;;;2.78;2.03;;;23.90;70.10;;;;;;4991797;28;20395;-85
2022/08/25 10:40:03;;;;;;;3.27;2.27;;;24.00;69.90;;;;;;5042626;28;20043;-85
2022/08/25 10:42:51;;;;;;;3.20;2.25;;;24.20;69.70;;;;;;5008402;28;20048;-85
2022/08/25 10:48:21;;;;;;;4.05;2.40;;;24.60;69.30;;;;;;5040684;28;20060;-85
2022/08/25 10:50:54;;;;;;;3.33;2.10;;;24.80;68.80;;;;;;5023087;28;20167;-84
2022/08/25 10:53:48;;;;;;;2.22;1.98;;;25.00;68.60;;;;;;5023871;28;20489;-87
2022/08/25 10:56:33;;;;;;;2.17;1.95;;;25.20;68.10;;;;;;5039873;28;20033;-88
2022/08/25 10:59:21;;;;;;;2.42;2.22;;;25.40;67.70;;;;;;5004541;28;20037;-90
2022/08/25 11:02:05;;;;;;;2.10;1.90;;;25.60;67.10;;;;;;5025010;28;20379;-83
2022/08/25 11:04:45;;;;;;;3.47;1.88;;;25.80;66.70;;;;;;5023279;28;20040;-90
2022/08/25 11:07:23;;;;;;;2.97;1.83;;;26.00;66.40;;;;;;5024214;28;20060;-90
2022/08/25 11:09:56;;;;;;;3.40;2.00;;;26.10;65.70;;;;;;5021627;28;20052;-90
2022/08/25 11:12:38;;;;;;;2.67;2.10;;;26.10;65.40;;;;;;4991569;28;20041;-89
2022/08/25 11:15:13;;;;;;;2.10;1.98;;;26.10;65.20;;;;;;5012590;28;20025;-94
2022/08/25 11:17:39;;;;;;;2.38;1.80;;;26.00;65.30;;;;;;5010879;28;20030;-93
2022/08/25 11:20:16;;;;;;;3.25;2.50;;;25.90;65.40;;;;;;5022105;28;20430;-86
2022/08/25 11:23:07;;;;;;;2.00;1.90;;;25.90;65.40;;;;;;4991379;28;20026;-85
2022/08/25 11:25:40;;;;;;;2.58;2.17;;;25.80;65.40;;;;;;5018998;28;20385;-85
2022/08/25 11:28:13;;;;;;;4.80;2.47;;;25.80;65.30;;;;;;5023967;28;20084;-88
2022/08/25 11:30:40;;;;;;;3.22;1.85;;;25.90;65.30;;;;;;5024663;28;20022;-86
2022/08/25 11:33:10;;;;;;;2.60;1.95;;;26.00;65.30;;;;;;5008876;28;20452;-85
2022/08/25 11:35:52;;;;;;;3.22;1.65;;;26.20;65.10;;;;;;5024147;28;20299;-88
2022/08/25 11:38:36;;;;;;;2.65;1.60;;;26.50;64.60;;;;;;5039626;28;20426;-86
2022/08/25 11:41:24;;;;;;;2.15;1.77;;;26.70;64.40;;;;;;5022637;28;20033;-88
2022/08/25 11:44:00;;;;;;;3.08;2.53;;;26.90;63.90;;;;;;5025096;28;20062;-85
2022/08/25 11:46:38;;;;;;;3.05;2.55;;;27.00;63.70;;;;;;5024722;28;20067;-85
2022/08/25 11:49:30;;;;;;;3.58;3.00;;;27.00;63.30;;;;;;5027203;28;20033;-82
2022/08/25 11:51:57;;;;;;;3.20;2.20;;;27.00;63.00;;;;;;5034438;28;20057;-92
2022/08/25 11:54:27;;;;;;;3.80;3.17;;;27.00;63.10;;;;;;5026488;28;20087;-88
2022/08/25 11:57:06;;;;;;;5.38;3.10;;;26.90;63.00;;;;;;5026347;28;20040;-91
2022/08/25 11:59:48;;;;;;;4.55;2.33;;;26.90;63.00;;;;;;5027290;28;20029;-93
2022/08/25 12:02:47;;;;;;;4.47;2.63;;;26.80;62.70;;;;;;5022869;28;20127;-94
2022/08/25 12:05:22;;;;;;;5.93;2.20;;;26.80;63.30;;;;;;5030186;28;20374;-92
2022/08/25 12:11:09;;;;;;;2.58;2.38;;;26.60;62.70;;;;;;5020486;28;20112;-92
2022/08/25 12:13:48;;;;;;;2.92;2.47;;;26.60;62.50;;;;;;5034896;28;20026;-92
2022/08/25 12:16:33;;;;;;;3.80;3.38;;;26.60;62.70;;;;;;5035790;28;20112;-84
2022/08/25 12:19:24;;;;;;;5.47;4.05;;;26.60;62.30;;;;;;5022034;28;20021;-85
2022/08/25 12:22:14;;;;;;;4.97;3.85;;;26.70;62.30;;;;;;5021384;28;20131;-85
2022/08/25 12:24:52;;;;;;;4.95;3.28;;;26.80;62.40;;;;;;5009766;28;20100;-85
2022/08/25 12:27:48;;;;;;;3.28;2.67;;;26.80;62.20;;;;;;5025572;28;20125;-94
2022/08/25 12:30:30;;;;;;;4.60;2.80;;;26.90;62.00;;;;;;5002858;28;20038;-90
2022/08/25 12:32:59;;;;;;;4.45;2.40;;;27.00;61.90;;;;;;5030764;28;20021;-91
2022/08/25 12:35:31;;;;;;;2.78;2.17;;;27.10;61.90;;;;;;5011817;28;20338;-91
2022/08/25 12:38:09;;;;;;;2.67;1.92;;;27.20;61.70;;;;;;5014348;28;20021;-88
2022/08/25 12:41:13;;;;;;;5.00;2.55;;;27.30;61.50;;;;;;5026376;28;20033;-89
2022/08/25 12:43:42;;;;;;;2.60;2.10;;;27.40;61.00;;;;;;5027381;28;20030;-87
2022/08/25 12:46:26;;;;;;;2.10;1.90;;;27.60;60.80;;;;;;5004677;28;20111;-88
2022/08/25 12:48:53;;;;;;;3.67;2.17;;;27.80;60.30;;;;;;5025606;28;20037;-92
2022/08/25 12:51:20;;;;;;;2.25;1.88;;;27.90;60.00;;;;;;5029085;28;20026;-90
2022/08/25 12:53:52;;;;;;;3.05;2.03;;;28.00;59.60;;;;;;5010105;28;20129;-90
2022/08/25 12:56:26;;;;;;;3.33;2.13;;;28.10;59.20;;;;;;5012794;28;20044;-85
2022/08/25 12:59:01;;;;;;;3.83;2.10;;;28.10;58.70;;;;;;5026368;28;20037;-85
2022/08/25 13:02:09;;;;;;;2.00;1.85;;;28.20;58.40;;;;;;5009712;28;20098;-87
2022/08/25 13:04:54;;;;;;;4.30;1.90;;;28.20;58.10;;;;;;5019920;28;20104;-90
2022/08/25 13:07:57;;;;;;;2.85;1.95;;;28.10;57.90;;;;;;5026585;28;20060;-85
2022/08/25 13:10:47;;;;;;;3.35;2.10;;;28.10;57.60;;;;;;5024611;28;20021;-88
2022/08/25 13:13:19;;;;;;;2.53;1.70;;;28.10;57.70;;;;;;5025821;28;20041;-90
2022/08/25 13:15:58;;;;;;;3.80;1.80;;;28.20;57.70;;;;;;5024050;28;20030;-88
2022/08/25 13:18:31;;;;;;;4.07;1.55;;;28.30;57.30;;;;;;5025877;28;20013;-89
2022/08/25 13:21:17;;;;;;;2.28;1.60;;;28.40;57.10;;;;;;5026002;28;20054;-90